createdAt,value
2023-03-16T00:00:32.841Z,3.13
2023-03-16T00:01:35.572Z,2.92
2023-03-16T00:02:37.893Z,2.97
2023-03-16T00:03:40.438Z,3.03
2023-03-16T00:04:47.436Z,2.50
2023-03-16T00:05:52.794Z,2.40
2023-03-16T00:06:57.542Z,2.50
2023-03-16T00:08:00.074Z,2.80
2023-03-16T00:09:03.579Z,3.03
2023-03-16T00:10:06.996Z,3.15
2023-03-16T00:11:09.916Z,3.05
2023-03-16T00:12:16.926Z,3.10
2023-03-16T00:13:23.952Z,3.15
2023-03-16T00:14:26.912Z,3.13
2023-03-16T00:15:30.204Z,2.90
2023-03-16T00:16:32.733Z,2.70
2023-03-16T00:17:35.069Z,2.92
2023-03-16T00:18:38.862Z,3.38
2023-03-16T00:19:46.873Z,3.00
2023-03-16T00:20:53.676Z,2.97
2023-03-16T00:21:56.049Z,2.95
2023-03-16T00:22:58.745Z,3.00
2023-03-16T00:24:04.186Z,3.08
2023-03-16T00:25:07.006Z,3.40
2023-03-16T00:26:10.419Z,3.45
2023-03-16T00:27:14.861Z,3.47
2023-03-16T00:28:17.249Z,3.85
2023-03-16T00:29:19.791Z,3.72
2023-03-16T00:30:22.884Z,3.55
2023-03-16T00:31:25.338Z,3.45
2023-03-16T00:32:31.818Z,3.45
2023-03-16T00:33:37.897Z,3.45
2023-03-16T00:34:41.124Z,3.55
2023-03-16T00:35:50.412Z,3.50
2023-03-16T00:36:52.819Z,3.70
2023-03-16T00:37:57.338Z,3.90
2023-03-16T00:39:00.601Z,3.20
2023-03-16T00:40:04.102Z,3.28
2023-03-16T00:41:08.129Z,3.83
2023-03-16T00:42:12.662Z,3.40
2023-03-16T00:43:18.739Z,3.70
2023-03-16T00:44:21.630Z,3.88
2023-03-16T00:45:25.213Z,3.33
2023-03-16T00:46:30.533Z,3.70
2023-03-16T00:47:36.658Z,3.22
2023-03-16T00:48:42.429Z,3.53
2023-03-16T00:49:45.540Z,3.30
2023-03-16T00:50:47.990Z,3.50
2023-03-16T00:51:50.867Z,3.25
2023-03-16T00:52:55.413Z,3.75
2023-03-16T00:54:05.340Z,3.50
2023-03-16T00:55:11.098Z,3.60
2023-03-16T00:56:14.083Z,3.40
2023-03-16T00:57:18.858Z,3.67
2023-03-16T00:58:25.820Z,3.60
2023-03-16T00:59:30.430Z,3.70
2023-03-16T01:00:33.955Z,3.60
2023-03-16T01:01:38.852Z,3.38
2023-03-16T01:02:42.062Z,3.67
2023-03-16T01:03:44.920Z,4.05
2023-03-16T01:04:47.234Z,4.35
2023-03-16T01:05:49.611Z,3.90
2023-03-16T01:06:51.963Z,4.20
2023-03-16T01:07:54.357Z,4.10
2023-03-16T01:08:58.242Z,4.32
2023-03-16T01:10:00.545Z,4.50
2023-03-16T01:11:05.359Z,3.72
2023-03-16T01:12:11.716Z,4.20
2023-03-16T01:13:14.136Z,3.85
2023-03-16T01:14:16.569Z,3.92
2023-03-16T01:15:18.949Z,4.55
2023-03-16T01:16:24.886Z,4.57
2023-03-16T01:17:28.419Z,3.95
2023-03-16T01:18:34.131Z,4.40
2023-03-16T01:19:37.983Z,4.30
2023-03-16T01:20:40.598Z,4.40
2023-03-16T01:21:42.923Z,4.70
2023-03-16T01:22:46.370Z,4.00
2023-03-16T01:23:48.758Z,4.30
2023-03-16T01:24:51.172Z,4.55
2023-03-16T01:25:54.122Z,4.72
2023-03-16T01:26:57.125Z,4.93
2023-03-16T01:27:59.544Z,12.63
2023-03-16T01:29:02.372Z,45.33
2023-03-16T01:30:06.078Z,35.78
2023-03-16T01:31:10.374Z,35.50
2023-03-16T01:32:13.317Z,23.15
2023-03-16T01:33:16.278Z,15.88
2023-03-16T01:34:18.903Z,13.63
2023-03-16T01:35:21.826Z,11.35
2023-03-16T01:36:25.669Z,9.15
2023-03-16T01:37:31.960Z,8.23
2023-03-16T01:38:54.652Z,7.90
2023-03-16T01:39:58.463Z,6.75
2023-03-16T01:41:02.082Z,7.13
2023-03-16T01:42:04.579Z,6.50
2023-03-16T01:43:07.848Z,6.47
2023-03-16T01:44:18.908Z,5.82
2023-03-16T01:45:55.498Z,7.82
2023-03-16T01:46:58.911Z,54.38
2023-03-16T01:48:01.322Z,44.10
2023-03-16T01:49:17.563Z,19.73
2023-03-16T01:50:20.047Z,15.35
2023-03-16T01:51:32.317Z,12.98
2023-03-16T01:52:37.710Z,10.82
2023-03-16T01:53:44.603Z,10.45
2023-03-16T01:54:48.179Z,9.50
2023-03-16T01:55:51.529Z,9.32
2023-03-16T01:57:07.692Z,8.60
2023-03-16T01:58:11.502Z,7.38
2023-03-16T01:59:17.254Z,7.68
2023-03-16T02:00:23.855Z,7.50
2023-03-16T02:01:36.536Z,6.60
2023-03-16T02:02:43.463Z,6.07
2023-03-16T02:03:48.424Z,6.30
2023-03-16T02:05:52.774Z,6.38
2023-03-16T02:06:58.091Z,4.82
2023-03-16T02:08:02.375Z,5.72
2023-03-16T02:11:43.514Z,4.93
2023-03-16T02:12:48.873Z,5.10
2023-03-16T02:13:52.615Z,5.03
2023-03-16T02:14:55.684Z,4.97
2023-03-16T02:15:58.398Z,7.55
2023-03-16T02:17:00.910Z,5.55
2023-03-16T02:18:04.771Z,5.03
2023-03-16T02:19:14.227Z,5.35
2023-03-16T02:20:37.649Z,5.00
2023-03-16T02:21:55.895Z,27.63
2023-03-16T02:22:58.733Z,11.15
2023-03-16T02:24:03.810Z,8.65
2023-03-16T02:25:06.987Z,6.13
2023-03-16T02:26:39.082Z,6.47
2023-03-16T02:27:53.150Z,5.70
2023-03-16T02:28:58.535Z,5.40
2023-03-16T02:30:11.711Z,4.97
2023-03-16T02:31:23.446Z,5.55
2023-03-16T02:32:29.403Z,5.30
2023-03-16T02:33:33.815Z,4.93
2023-03-16T02:34:36.386Z,4.88
2023-03-16T02:35:38.792Z,4.65
2023-03-16T02:36:43.635Z,5.00
2023-03-16T02:37:45.982Z,5.15
2023-03-16T02:38:48.414Z,4.93
2023-03-16T02:39:53.674Z,4.43
2023-03-16T02:41:09.508Z,4.63
2023-03-16T02:42:15.387Z,4.95
2023-03-16T02:43:22.265Z,4.93
2023-03-16T02:44:40.696Z,4.75
2023-03-16T02:45:51.171Z,4.55
2023-03-16T02:46:57.641Z,5.18
2023-03-16T02:48:05.447Z,4.57
2023-03-16T02:49:16.310Z,4.53
2023-03-16T02:50:19.263Z,4.63
2023-03-16T02:51:21.589Z,4.90
2023-03-16T02:52:24.504Z,4.40
2023-03-16T02:53:27.133Z,4.82
2023-03-16T02:54:31.081Z,4.75
2023-03-16T02:55:33.609Z,4.60
2023-03-16T02:56:36.068Z,4.82
2023-03-16T02:57:38.344Z,4.50
2023-03-16T02:58:46.094Z,4.53
2023-03-16T02:59:52.739Z,4.57
2023-03-16T03:00:55.452Z,4.93
2023-03-16T03:01:58.044Z,4.75
2023-03-16T03:03:00.972Z,4.38
2023-03-16T03:04:04.659Z,4.15
2023-03-16T03:05:08.021Z,4.30
2023-03-16T03:06:11.038Z,26.10
2023-03-16T03:07:14.425Z,51.25
2023-03-16T03:08:32.771Z,37.65
2023-03-16T03:09:36.246Z,27.80
2023-03-16T03:10:38.782Z,23.38
2023-03-16T03:11:41.561Z,21.13
2023-03-16T03:12:44.279Z,19.85
2023-03-16T03:13:47.579Z,17.00
2023-03-16T03:14:54.219Z,15.80
2023-03-16T03:15:57.578Z,14.25
2023-03-16T03:17:03.952Z,13.52
2023-03-16T03:18:07.383Z,12.25
2023-03-16T03:19:09.982Z,11.57
2023-03-16T03:20:17.651Z,10.00
2023-03-16T03:21:20.600Z,9.55
2023-03-16T03:22:22.942Z,8.73
2023-03-16T03:23:25.439Z,8.63
2023-03-16T03:24:28.118Z,8.20
2023-03-16T03:25:30.582Z,8.05
2023-03-16T03:26:32.940Z,7.35
2023-03-16T03:27:36.298Z,7.20
2023-03-16T03:28:42.194Z,6.75
2023-03-16T03:29:45.484Z,5.75
2023-03-16T03:30:47.834Z,6.63
2023-03-16T03:31:50.283Z,5.72
2023-03-16T03:32:52.782Z,6.63
2023-03-16T03:33:56.599Z,6.38
2023-03-16T03:34:59.180Z,6.38
2023-03-16T03:36:02.058Z,5.75
2023-03-16T03:37:10.066Z,5.82
2023-03-16T03:38:12.730Z,5.88
2023-03-16T03:39:19.139Z,4.97
2023-03-16T03:40:24.647Z,5.50
2023-03-16T03:41:33.825Z,5.28
2023-03-16T03:42:40.455Z,5.80
2023-03-16T03:43:44.418Z,4.85
2023-03-16T03:44:52.771Z,5.22
2023-03-16T03:46:04.529Z,5.38
2023-03-16T03:47:09.571Z,5.50
2023-03-16T03:48:12.148Z,5.30
2023-03-16T03:49:15.288Z,4.60
2023-03-16T03:50:18.167Z,5.15
2023-03-16T03:51:41.240Z,17.02
2023-03-16T03:52:50.390Z,16.83
2023-03-16T03:53:52.845Z,20.90
2023-03-16T03:55:02.881Z,13.40
2023-03-16T03:56:06.160Z,17.65
2023-03-16T03:57:08.629Z,16.25
2023-03-16T03:58:12.060Z,14.73
2023-03-16T03:59:14.632Z,13.48
2023-03-16T04:00:49.449Z,11.95
2023-03-16T04:01:53.766Z,11.00
2023-03-16T04:02:58.216Z,11.77
2023-03-16T04:04:07.635Z,10.52
2023-03-16T04:05:10.707Z,8.95
2023-03-16T04:06:13.136Z,9.85
2023-03-16T04:07:15.528Z,9.90
2023-03-16T04:08:19.707Z,10.10
2023-03-16T04:09:22.093Z,9.45
2023-03-16T04:10:26.698Z,9.52
2023-03-16T04:11:29.439Z,9.07
2023-03-16T04:12:31.896Z,8.40
2023-03-16T04:13:34.284Z,9.00
2023-03-16T04:14:36.732Z,8.43
2023-03-16T04:15:46.780Z,9.02
2023-03-16T04:16:54.725Z,8.45
2023-03-16T04:17:57.437Z,8.23
2023-03-16T04:19:01.655Z,8.23
2023-03-16T04:20:11.398Z,7.70
2023-03-16T04:21:17.852Z,6.95
2023-03-16T04:22:23.517Z,17.17
2023-03-16T04:23:26.864Z,30.20
2023-03-16T04:24:30.100Z,26.42
2023-03-16T04:25:32.517Z,24.50
2023-03-16T04:26:35.044Z,19.30
2023-03-16T04:27:39.447Z,15.10
2023-03-16T04:28:43.317Z,12.52
2023-03-16T04:29:48.360Z,10.57
2023-03-16T04:30:50.719Z,11.27
2023-03-16T04:31:58.557Z,10.38
2023-03-16T04:33:03.217Z,10.88
2023-03-16T04:34:08.548Z,11.35
2023-03-16T04:35:11.162Z,9.80
2023-03-16T04:36:24.414Z,9.80
2023-03-16T04:37:27.397Z,9.30
2023-03-16T04:38:33.631Z,9.60
2023-03-16T04:39:36.894Z,9.90
2023-03-16T04:40:39.301Z,10.02
2023-03-16T04:41:48.136Z,8.45
2023-03-16T04:42:56.032Z,9.02
2023-03-16T04:43:59.073Z,8.43
2023-03-16T04:45:01.729Z,9.23
2023-03-16T04:46:05.778Z,8.25
2023-03-16T04:47:09.394Z,8.90
2023-03-16T04:48:14.789Z,7.97
2023-03-16T04:49:17.074Z,8.60
2023-03-16T04:50:20.907Z,7.93
2023-03-16T04:51:28.074Z,8.02
2023-03-16T04:52:51.843Z,8.13
2023-03-16T04:53:54.975Z,8.07
2023-03-16T04:55:05.897Z,7.28
2023-03-16T04:56:09.129Z,8.25
2023-03-16T04:57:12.356Z,8.02
2023-03-16T04:58:19.359Z,7.70
2023-03-16T04:59:25.603Z,7.05
2023-03-16T05:00:36.119Z,7.85
2023-03-16T05:01:43.511Z,7.38
2023-03-16T05:02:48.030Z,7.63
2023-03-16T05:03:50.543Z,7.60
2023-03-16T05:04:55.155Z,7.55
2023-03-16T05:05:57.607Z,7.13
2023-03-16T05:07:01.822Z,6.90
2023-03-16T05:08:10.745Z,66.07
2023-03-16T05:09:14.664Z,41.47
2023-03-16T05:10:21.883Z,30.55
2023-03-16T05:11:24.277Z,22.92
2023-03-16T05:12:32.337Z,18.02
2023-03-16T05:13:39.246Z,13.10
2023-03-16T05:14:41.548Z,12.93
2023-03-16T05:16:07.273Z,13.30
2023-03-16T05:17:14.735Z,12.65
2023-03-16T05:18:17.763Z,12.40
2023-03-16T05:19:20.218Z,11.93
2023-03-16T05:20:23.817Z,11.93
2023-03-16T05:21:31.982Z,11.02
2023-03-16T05:22:40.864Z,11.68
2023-03-16T05:23:56.812Z,11.32
2023-03-16T05:25:03.253Z,10.60
2023-03-16T05:26:05.885Z,11.13
2023-03-16T05:27:11.367Z,11.25
2023-03-16T05:28:15.004Z,9.82
2023-03-16T05:29:38.665Z,10.07
2023-03-16T05:30:42.294Z,9.25
2023-03-16T05:31:48.573Z,10.13
2023-03-16T05:32:54.774Z,10.07
2023-03-16T05:33:57.412Z,9.70
2023-03-16T05:34:59.877Z,9.55
2023-03-16T05:36:03.100Z,9.43
2023-03-16T05:37:06.243Z,9.63
2023-03-16T05:38:09.977Z,9.55
2023-03-16T05:39:15.369Z,9.02
2023-03-16T05:40:23.017Z,10.13
2023-03-16T05:41:34.146Z,9.07
2023-03-16T05:42:41.530Z,9.65
2023-03-16T05:43:47.365Z,9.20
2023-03-16T05:44:51.365Z,8.55
2023-03-16T05:45:57.357Z,9.65
2023-03-16T05:47:00.539Z,8.55
2023-03-16T05:48:05.754Z,8.20
2023-03-16T05:49:12.899Z,7.80
2023-03-16T05:50:16.983Z,8.07
2023-03-16T05:51:20.133Z,8.48
2023-03-16T05:52:25.415Z,7.78
2023-03-16T05:53:29.375Z,8.90
2023-03-16T05:54:38.311Z,8.25
2023-03-16T05:55:41.308Z,8.38
2023-03-16T05:56:46.593Z,7.60
2023-03-16T05:57:51.005Z,7.90
2023-03-16T05:58:55.359Z,7.82
2023-03-16T05:59:58.198Z,8.30
2023-03-16T06:01:05.400Z,7.78
2023-03-16T06:02:10.762Z,7.45
2023-03-16T06:03:13.226Z,7.20
2023-03-16T06:04:15.932Z,7.35
2023-03-16T06:05:19.871Z,8.00
2023-03-16T06:06:23.107Z,7.35
2023-03-16T06:07:41.606Z,6.97
2023-03-16T06:08:44.565Z,8.02
2023-03-16T06:09:48.464Z,7.70
2023-03-16T06:10:52.377Z,7.53
2023-03-16T06:11:55.996Z,7.45
2023-03-16T06:12:59.925Z,8.38
2023-03-16T06:14:02.521Z,7.25
2023-03-16T06:15:08.876Z,7.43
2023-03-16T06:16:13.819Z,7.05
2023-03-16T06:17:16.444Z,7.28
2023-03-16T06:18:18.754Z,7.25
2023-03-16T06:19:21.839Z,7.63
2023-03-16T06:20:29.333Z,6.72
2023-03-16T06:21:32.212Z,6.85
2023-03-16T06:22:42.030Z,6.72
2023-03-16T06:23:44.432Z,6.32
2023-03-16T06:24:47.952Z,7.13
2023-03-16T06:25:51.292Z,6.93
2023-03-16T06:26:56.806Z,6.03
2023-03-16T06:28:05.282Z,6.45
2023-03-16T06:29:07.827Z,5.72
2023-03-16T06:30:14.195Z,6.80
2023-03-16T06:31:16.935Z,5.97
2023-03-16T06:32:21.951Z,6.25
2023-03-16T06:33:25.356Z,6.78
2023-03-16T06:34:28.304Z,6.30
2023-03-16T06:35:32.578Z,6.93
2023-03-16T06:36:48.245Z,6.00
2023-03-16T06:37:50.607Z,6.10
2023-03-16T06:39:07.346Z,6.38
2023-03-16T06:40:13.873Z,6.43
2023-03-16T06:41:16.312Z,5.85
2023-03-16T06:42:21.438Z,6.20
2023-03-16T06:43:23.846Z,6.15
2023-03-16T06:44:26.934Z,5.93
2023-03-16T06:45:38.545Z,6.65
2023-03-16T06:46:41.609Z,6.63
2023-03-16T06:47:44.463Z,6.40
2023-03-16T06:48:47.457Z,5.93
2023-03-16T06:49:51.670Z,6.32
2023-03-16T06:50:56.745Z,5.18
2023-03-16T06:52:03.309Z,5.47
2023-03-16T06:53:06.821Z,5.80
2023-03-16T06:54:11.797Z,5.53
2023-03-16T06:55:15.669Z,5.50
2023-03-16T06:56:21.529Z,5.50
2023-03-16T06:57:25.667Z,5.45
2023-03-16T06:58:28.006Z,5.70
2023-03-16T06:59:30.494Z,5.18
2023-03-16T07:00:34.131Z,5.93
2023-03-16T07:01:36.806Z,5.80
2023-03-16T07:02:40.470Z,5.18
2023-03-16T07:03:44.135Z,5.55
2023-03-16T07:04:58.245Z,5.45
2023-03-16T07:06:00.616Z,5.75
2023-03-16T07:07:03.022Z,5.40
2023-03-16T07:08:06.090Z,5.13
2023-03-16T07:09:08.893Z,5.20
2023-03-16T07:10:13.554Z,5.15
2023-03-16T07:11:15.934Z,5.25
2023-03-16T07:12:18.546Z,4.63
2023-03-16T07:13:21.591Z,4.75
2023-03-16T07:14:26.287Z,5.35
2023-03-16T07:15:31.247Z,5.15
2023-03-16T07:16:34.569Z,4.95
2023-03-16T07:17:40.249Z,5.93
2023-03-16T07:18:44.583Z,5.05
2023-03-16T07:19:49.517Z,4.50
2023-03-16T07:20:54.153Z,5.20
2023-03-16T07:21:58.779Z,5.07
2023-03-16T07:23:02.577Z,4.68
2023-03-16T07:24:05.980Z,5.10
2023-03-16T07:25:12.400Z,4.90
2023-03-16T07:26:19.065Z,4.90
2023-03-16T07:27:29.754Z,5.25
2023-03-16T07:28:34.107Z,4.55
2023-03-16T07:29:37.812Z,5.10
2023-03-16T07:30:41.296Z,4.88
2023-03-16T07:31:45.473Z,5.22
2023-03-16T07:32:53.449Z,5.00
2023-03-16T07:33:58.172Z,4.85
2023-03-16T07:35:11.559Z,5.22
2023-03-16T07:36:14.329Z,4.82
2023-03-16T07:37:25.821Z,4.72
2023-03-16T07:38:33.526Z,4.50
2023-03-16T07:39:36.766Z,4.50
2023-03-16T07:40:46.284Z,4.45
2023-03-16T07:41:55.012Z,4.50
2023-03-16T07:43:13.148Z,4.80
2023-03-16T07:44:24.198Z,4.70
2023-03-16T07:45:28.699Z,4.72
2023-03-16T07:46:32.641Z,4.57
2023-03-16T07:47:35.804Z,4.70
2023-03-16T07:48:51.005Z,4.90
2023-03-16T07:49:53.312Z,4.70
2023-03-16T07:50:55.609Z,4.68
2023-03-16T07:51:58.807Z,4.20
2023-03-16T07:53:09.197Z,4.50
2023-03-16T07:54:14.353Z,4.35
2023-03-16T07:55:16.817Z,4.30
2023-03-16T07:56:21.417Z,4.50
2023-03-16T07:57:30.612Z,4.30
2023-03-16T07:58:32.980Z,4.70
2023-03-16T07:59:35.546Z,4.32
2023-03-16T08:00:39.424Z,4.32
2023-03-16T08:01:41.812Z,4.28
2023-03-16T08:02:44.589Z,4.65
2023-03-16T08:03:48.891Z,4.53
2023-03-16T08:04:51.580Z,4.70
2023-03-16T08:05:55.371Z,4.40
2023-03-16T08:07:00.190Z,4.35
2023-03-16T08:08:09.736Z,4.32
2023-03-16T08:09:13.412Z,4.55
2023-03-16T08:10:17.976Z,4.50
2023-03-16T08:11:41.640Z,4.38
2023-03-16T08:12:44.107Z,4.63
2023-03-16T08:13:47.231Z,4.28
2023-03-16T08:14:50.203Z,4.22
2023-03-16T08:16:01.868Z,4.75
2023-03-16T08:17:14.008Z,4.65
2023-03-16T08:18:17.093Z,4.32
2023-03-16T08:19:20.312Z,4.10
2023-03-16T08:20:23.981Z,4.68
2023-03-16T08:21:26.384Z,4.55
2023-03-16T08:22:30.001Z,4.32
2023-03-16T08:23:33.612Z,4.75
2023-03-16T08:24:36.815Z,4.35
2023-03-16T08:25:41.109Z,4.63
2023-03-16T08:26:48.096Z,4.55
2023-03-16T08:27:50.919Z,4.40
2023-03-16T08:28:53.766Z,4.38
2023-03-16T08:29:56.678Z,4.57
2023-03-16T08:31:02.073Z,4.78
2023-03-16T08:32:37.573Z,4.22
2023-03-16T08:33:43.924Z,4.47
2023-03-16T08:34:47.665Z,4.60
2023-03-16T08:35:50.680Z,4.30
2023-03-16T08:36:54.322Z,3.67
2023-03-16T08:37:57.675Z,3.92
2023-03-16T08:39:07.067Z,3.80
2023-03-16T08:40:18.194Z,4.93
2023-03-16T08:41:22.310Z,4.53
2023-03-16T08:42:25.869Z,3.83
2023-03-16T08:43:33.693Z,3.78
2023-03-16T08:44:37.035Z,3.95
2023-03-16T08:45:39.357Z,2.95
2023-03-16T08:46:42.366Z,3.72
2023-03-16T08:47:44.846Z,3.65
2023-03-16T08:48:49.144Z,3.03
2023-03-16T08:49:52.249Z,3.53
2023-03-16T08:50:55.277Z,3.08
2023-03-16T08:51:57.581Z,3.30
2023-03-16T08:53:00.792Z,3.35
2023-03-16T08:54:03.246Z,3.30
2023-03-16T08:55:07.081Z,13.90
2023-03-16T08:56:12.309Z,2.70
2023-03-16T08:57:15.426Z,3.25
2023-03-16T08:58:17.829Z,3.15
2023-03-16T08:59:29.674Z,3.25
2023-03-16T09:00:33.167Z,2.92
2023-03-16T09:01:35.882Z,3.20
2023-03-16T09:02:40.511Z,2.85
2023-03-16T09:03:45.634Z,2.42
2023-03-16T09:04:48.145Z,2.80
2023-03-16T09:05:50.489Z,2.92
2023-03-16T09:07:07.929Z,2.63
2023-03-16T09:08:10.943Z,2.40
2023-03-16T09:09:13.898Z,3.25
2023-03-16T09:10:18.850Z,2.53
2023-03-16T09:11:22.150Z,2.70
2023-03-16T09:12:25.035Z,2.30
2023-03-16T09:13:28.771Z,2.60
2023-03-16T09:14:31.316Z,2.97
2023-03-16T09:15:34.082Z,2.63
2023-03-16T09:16:36.431Z,2.88
2023-03-16T09:17:41.510Z,2.90
2023-03-16T09:18:44.123Z,2.50
2023-03-16T09:19:51.961Z,2.83
2023-03-16T09:21:01.332Z,2.40
2023-03-16T09:22:04.025Z,2.60
2023-03-16T09:23:06.468Z,2.22
2023-03-16T09:24:08.987Z,2.20
2023-03-16T09:25:11.521Z,2.20
2023-03-16T09:26:17.141Z,2.65
2023-03-16T09:27:20.650Z,2.65
2023-03-16T09:28:23.087Z,2.20
2023-03-16T09:29:25.715Z,2.40
2023-03-16T09:30:28.557Z,2.83
2023-03-16T09:31:31.109Z,2.65
2023-03-16T09:32:34.276Z,2.50
2023-03-16T09:33:36.934Z,2.42
2023-03-16T09:34:39.640Z,2.30
2023-03-16T09:35:44.879Z,2.00
2023-03-16T09:36:47.313Z,2.45
2023-03-16T09:38:05.089Z,2.58
2023-03-16T09:39:08.748Z,2.22
2023-03-16T09:40:24.851Z,2.33
2023-03-16T09:41:44.689Z,1.90
2023-03-16T09:43:10.686Z,2.03
2023-03-16T09:44:33.596Z,2.28
2023-03-16T09:46:03.113Z,2.45
2023-03-16T09:47:11.187Z,2.28
2023-03-16T09:48:17.212Z,2.25
2023-03-16T09:49:21.989Z,2.47
2023-03-16T09:50:38.218Z,2.55
2023-03-16T09:51:52.241Z,1.90
2023-03-16T09:53:05.948Z,2.13
2023-03-16T09:54:24.702Z,2.08
2023-03-16T09:55:38.949Z,2.15
2023-03-16T09:56:43.544Z,2.20
2023-03-16T09:57:47.483Z,2.25
2023-03-16T09:58:50.085Z,1.92
2023-03-16T09:59:53.167Z,2.08
2023-03-16T10:01:12.118Z,2.03
2023-03-16T10:02:54.083Z,1.95
2023-03-16T10:04:13.184Z,2.05
2023-03-16T10:05:20.590Z,2.10
2023-03-16T10:06:23.340Z,2.13
2023-03-16T10:07:34.335Z,2.08
2023-03-16T10:08:43.416Z,1.75
2023-03-16T10:09:49.716Z,1.52
2023-03-16T10:11:13.553Z,1.60
2023-03-16T10:12:16.329Z,1.80
2023-03-16T10:13:36.330Z,1.95
2023-03-16T10:15:04.716Z,1.85
2023-03-16T10:16:33.888Z,2.17
2023-03-16T10:17:43.724Z,1.85
2023-03-16T10:18:49.352Z,2.10
2023-03-16T10:20:18.120Z,1.90
2023-03-16T10:21:21.326Z,1.90
2023-03-16T10:22:31.178Z,1.80
2023-03-16T10:23:35.578Z,1.60
2023-03-16T10:24:59.376Z,1.75
2023-03-16T10:26:19.303Z,1.83
2023-03-16T10:27:32.346Z,1.67
2023-03-16T10:28:34.802Z,1.80
2023-03-16T10:29:37.176Z,1.65
2023-03-16T10:30:41.829Z,1.70
2023-03-16T10:31:45.778Z,1.92
2023-03-16T10:32:49.507Z,1.90
2023-03-16T10:33:58.445Z,1.67
2023-03-16T10:35:21.022Z,1.60
2023-03-16T10:36:34.521Z,1.75
2023-03-16T10:37:38.655Z,1.92
2023-03-16T10:38:50.552Z,2.03
2023-03-16T10:39:53.102Z,1.83
2023-03-16T10:40:57.844Z,1.85
2023-03-16T10:42:00.265Z,2.10
2023-03-16T10:43:08.539Z,1.58
2023-03-16T10:44:23.521Z,1.90
2023-03-16T10:45:29.699Z,1.88
2023-03-16T10:46:41.080Z,2.03
2023-03-16T10:47:43.547Z,1.88
2023-03-16T10:49:00.711Z,1.77
2023-03-16T10:50:16.697Z,1.77
2023-03-16T10:51:25.375Z,1.55
2023-03-16T10:52:39.973Z,1.60
2023-03-16T10:53:44.657Z,2.00
2023-03-16T10:54:51.335Z,2.08
2023-03-16T10:56:05.807Z,1.65
2023-03-16T10:57:35.665Z,1.73
2023-03-16T10:58:42.501Z,1.73
2023-03-16T10:59:49.798Z,1.60
2023-03-16T11:00:53.591Z,1.70
2023-03-16T11:01:57.077Z,2.00
2023-03-16T11:03:01.235Z,1.88
2023-03-16T11:04:15.646Z,1.75
2023-03-16T11:05:18.019Z,1.45
2023-03-16T11:06:30.534Z,1.25
2023-03-16T11:07:36.125Z,2.15
2023-03-16T11:08:39.934Z,1.60
2023-03-16T11:09:43.142Z,1.58
2023-03-16T11:10:56.253Z,1.73
2023-03-16T11:11:59.797Z,1.55
2023-03-16T11:13:14.616Z,1.75
2023-03-16T11:14:21.205Z,1.90
2023-03-16T11:15:26.198Z,1.50
2023-03-16T11:16:43.426Z,1.30
2023-03-16T11:17:51.352Z,1.20
2023-03-16T11:19:21.502Z,1.48
2023-03-16T11:20:28.545Z,1.40
2023-03-16T11:21:55.081Z,0.85
2023-03-16T11:23:00.507Z,1.33
2023-03-16T11:24:04.518Z,1.25
2023-03-16T11:25:17.123Z,1.10
2023-03-16T11:26:27.746Z,1.30
2023-03-16T11:27:39.519Z,1.35
2023-03-16T11:28:50.420Z,1.20
2023-03-16T11:30:05.333Z,1.45
2023-03-16T11:31:20.017Z,1.02
2023-03-16T11:32:29.772Z,1.10
2023-03-16T11:33:34.836Z,1.25
2023-03-16T11:34:37.201Z,1.23
2023-03-16T11:35:44.164Z,1.40
2023-03-16T11:37:36.707Z,1.20
2023-03-16T11:38:48.573Z,1.40
2023-03-16T11:40:17.341Z,1.30
2023-03-16T11:41:45.750Z,1.30
2023-03-16T11:43:05.873Z,1.10
2023-03-16T11:44:18.368Z,1.00
2023-03-16T11:45:37.130Z,0.98
2023-03-16T11:46:48.621Z,1.33
2023-03-16T11:48:28.232Z,1.17
2023-03-16T11:49:45.660Z,1.27
2023-03-16T11:51:04.919Z,1.25
2023-03-16T11:52:17.242Z,1.10
2023-03-16T11:53:32.479Z,1.10
2023-03-16T11:54:53.981Z,1.10
2023-03-16T11:57:30.724Z,1.10
2023-03-16T11:59:06.669Z,0.90
2023-03-16T12:00:27.459Z,1.00
2023-03-16T12:02:00.052Z,0.98
2023-03-16T12:03:39.790Z,1.10
2023-03-16T12:05:19.799Z,1.10
2023-03-16T12:06:27.440Z,1.00
2023-03-16T12:07:55.518Z,1.42
2023-03-16T12:09:16.361Z,1.20
2023-03-16T12:10:44.243Z,1.27
2023-03-16T12:12:05.791Z,1.23
2023-03-16T12:13:38.555Z,1.38
2023-03-16T12:14:51.118Z,1.27
2023-03-16T12:16:05.777Z,1.10
2023-03-16T12:17:27.733Z,1.00
2023-03-16T12:18:44.905Z,1.20
2023-03-16T12:19:53.622Z,1.10
2023-03-16T12:21:01.648Z,1.25
2023-03-16T12:22:15.219Z,1.00
2023-03-16T12:23:34.566Z,1.40
2023-03-16T12:24:42.694Z,0.95
2023-03-16T12:25:49.162Z,1.17
2023-03-16T12:26:53.418Z,0.95
2023-03-16T12:27:58.877Z,1.10
2023-03-16T12:29:08.734Z,0.98
2023-03-16T12:30:27.523Z,0.95
2023-03-16T12:31:59.113Z,0.90
2023-03-16T12:33:35.032Z,0.93
2023-03-16T12:34:54.734Z,1.20
2023-03-16T12:36:21.160Z,1.05
2023-03-16T12:37:38.552Z,1.27
2023-03-16T12:38:49.654Z,1.00
2023-03-16T12:39:55.399Z,0.90
2023-03-16T12:41:04.107Z,0.90
2023-03-16T12:42:43.840Z,0.80
2023-03-16T12:44:12.479Z,1.00
2023-03-16T12:45:18.006Z,0.98
2023-03-16T12:46:49.316Z,0.95
2023-03-16T12:47:58.733Z,0.95
2023-03-16T12:49:04.769Z,0.60
2023-03-16T12:50:12.983Z,0.68
2023-03-16T12:51:15.862Z,1.02
2023-03-16T12:52:18.940Z,0.90
2023-03-16T12:53:42.922Z,0.82
2023-03-16T12:54:54.938Z,0.90
2023-03-16T12:55:57.926Z,0.70
2023-03-16T12:57:05.803Z,0.80
2023-03-16T12:58:09.143Z,0.82
2023-03-16T12:59:18.454Z,1.08
2023-03-16T13:00:21.529Z,1.02
2023-03-16T13:01:30.338Z,0.93
2023-03-16T13:02:35.859Z,1.02
2023-03-16T13:03:39.320Z,0.98
2023-03-16T13:04:44.676Z,1.10
2023-03-16T13:05:53.727Z,0.95
2023-03-16T13:07:09.950Z,1.20
2023-03-16T13:08:18.056Z,0.90
2023-03-16T13:09:25.217Z,1.15
2023-03-16T13:10:28.708Z,0.80
2023-03-16T13:11:43.750Z,1.00
2023-03-16T13:12:47.964Z,0.80
2023-03-16T13:14:02.772Z,1.00
2023-03-16T13:15:21.304Z,0.90
2023-03-16T13:16:29.654Z,1.00
2023-03-16T13:17:33.668Z,0.77
2023-03-16T13:18:41.746Z,0.98
2023-03-16T13:19:47.791Z,1.00
2023-03-16T13:21:21.581Z,0.75
2023-03-16T13:22:32.243Z,0.90
2023-03-16T13:23:54.062Z,1.08
2023-03-16T13:26:40.513Z,1.02
2023-03-16T13:27:47.342Z,0.63
2023-03-16T13:28:55.003Z,0.90
2023-03-16T13:30:02.132Z,1.13
2023-03-16T13:31:20.928Z,1.30
2023-03-16T13:32:27.256Z,1.13
2023-03-16T13:33:36.976Z,1.20
2023-03-16T13:34:49.912Z,0.80
2023-03-16T13:35:54.718Z,1.08
2023-03-16T13:36:59.125Z,1.02
2023-03-16T13:38:06.638Z,1.10
2023-03-16T13:39:20.193Z,1.05
2023-03-16T13:40:23.170Z,0.82
2023-03-16T13:41:25.707Z,0.82
2023-03-16T13:42:33.209Z,1.00
2023-03-16T13:43:39.597Z,1.00
2023-03-16T13:44:42.780Z,0.82
2023-03-16T13:45:45.232Z,1.02
2023-03-16T13:46:50.786Z,0.70
2023-03-16T13:47:53.465Z,0.93
2023-03-16T13:49:00.794Z,0.93
2023-03-16T13:50:03.408Z,0.73
2023-03-16T13:51:15.868Z,0.82
2023-03-16T13:52:30.739Z,0.80
2023-03-16T13:53:33.319Z,0.80
2023-03-16T13:54:37.272Z,0.85
2023-03-16T13:55:40.411Z,0.80
2023-03-16T13:56:43.302Z,0.73
2023-03-16T13:57:46.498Z,0.70
2023-03-16T13:58:51.752Z,0.82
2023-03-16T14:00:18.088Z,0.98
2023-03-16T14:01:29.179Z,1.00
2023-03-16T14:02:36.164Z,0.80
2023-03-16T14:03:42.692Z,0.95
2023-03-16T14:04:45.337Z,1.10
2023-03-16T14:05:48.426Z,0.68
2023-03-16T14:06:58.527Z,1.00
2023-03-16T14:08:02.169Z,0.85
2023-03-16T14:09:08.056Z,0.75
2023-03-16T14:10:14.577Z,0.80
2023-03-16T14:11:17.128Z,0.80
2023-03-16T14:12:20.077Z,1.20
2023-03-16T14:13:32.616Z,1.20
2023-03-16T14:14:41.335Z,1.05
2023-03-16T14:15:45.294Z,0.82
2023-03-16T14:16:47.674Z,1.08
2023-03-16T14:17:50.865Z,0.85
2023-03-16T14:19:06.170Z,1.10
2023-03-16T14:20:21.995Z,1.10
2023-03-16T14:21:28.148Z,1.50
2023-03-16T14:22:37.216Z,1.02
2023-03-16T14:23:48.008Z,1.00
2023-03-16T14:25:00.606Z,1.00
2023-03-16T14:26:06.403Z,0.77
2023-03-16T14:27:40.962Z,0.93
2023-03-16T14:28:55.459Z,1.10
2023-03-16T14:30:25.833Z,1.30
2023-03-16T14:31:46.320Z,1.00
2023-03-16T14:33:24.935Z,0.95
2023-03-16T14:34:30.635Z,0.80
2023-03-16T14:35:41.457Z,1.55
2023-03-16T14:36:44.391Z,1.20
2023-03-16T14:37:49.227Z,0.80
2023-03-16T14:38:54.427Z,0.90
2023-03-16T14:40:08.129Z,0.90
2023-03-16T14:41:26.451Z,1.20
2023-03-16T14:42:30.749Z,0.90
2023-03-16T14:43:36.568Z,0.93
2023-03-16T14:44:39.111Z,0.85
2023-03-16T14:45:41.819Z,1.58
2023-03-16T14:46:44.216Z,0.90
2023-03-16T14:47:48.520Z,0.90
2023-03-16T14:48:51.046Z,1.30
2023-03-16T14:49:53.987Z,0.93
2023-03-16T14:51:01.568Z,1.00
2023-03-16T14:52:15.280Z,1.13
2023-03-16T14:53:17.639Z,0.90
2023-03-16T14:54:22.357Z,1.20
2023-03-16T14:55:25.711Z,0.90
2023-03-16T14:56:34.779Z,0.98
2023-03-16T14:57:37.272Z,1.08
2023-03-16T14:58:40.481Z,0.95
2023-03-16T14:59:45.939Z,0.70
2023-03-16T15:00:53.420Z,1.02
2023-03-16T15:01:56.817Z,1.17